createdAt,value
2023-03-03T00:01:48.214Z,1.40
2023-03-03T00:04:11.454Z,1.50
2023-03-03T00:06:34.756Z,1.60
2023-03-03T00:08:58.187Z,1.60
2023-03-03T00:11:21.470Z,1.60
2023-03-03T00:13:50.552Z,1.50
2023-03-03T00:16:24.116Z,1.50
2023-03-03T00:18:49.718Z,1.50
2023-03-03T00:21:35.269Z,1.50
2023-03-03T00:24:21.645Z,1.50
2023-03-03T00:26:48.055Z,1.50
2023-03-03T00:29:37.714Z,1.60
2023-03-03T00:32:25.150Z,1.50
2023-03-03T00:34:48.968Z,1.60
2023-03-03T00:37:29.240Z,1.60
2023-03-03T00:39:52.562Z,1.70
2023-03-03T00:42:16.998Z,1.60
2023-03-03T00:44:45.189Z,1.60
2023-03-03T00:47:32.735Z,1.50
2023-03-03T00:50:01.597Z,1.50
2023-03-03T00:52:29.711Z,1.50
2023-03-03T00:54:52.979Z,1.50
2023-03-03T00:57:16.352Z,1.50
2023-03-03T00:59:41.822Z,1.50
2023-03-03T01:02:05.814Z,1.50
2023-03-03T01:04:29.117Z,1.50
2023-03-03T01:06:52.435Z,1.60
2023-03-03T01:09:16.218Z,1.60
2023-03-03T01:11:39.455Z,1.60
2023-03-03T01:14:02.849Z,1.50
2023-03-03T01:16:27.619Z,1.50
2023-03-03T01:18:50.925Z,1.60
2023-03-03T01:21:14.582Z,1.70
2023-03-03T01:23:38.667Z,1.50
2023-03-03T01:26:02.529Z,1.50
2023-03-03T01:28:25.810Z,1.50
2023-03-03T01:30:49.063Z,1.50
2023-03-03T01:33:14.169Z,1.50
2023-03-03T01:35:38.120Z,1.50
2023-03-03T01:38:01.441Z,1.50
2023-03-03T01:40:27.709Z,1.60
2023-03-03T01:42:52.581Z,1.50
2023-03-03T01:45:21.089Z,1.50
2023-03-03T01:47:51.014Z,1.50
2023-03-03T01:50:32.007Z,1.50
2023-03-03T01:52:56.858Z,1.50
2023-03-03T01:55:24.281Z,1.50
2023-03-03T01:57:53.638Z,1.50
2023-03-03T02:00:18.099Z,1.60
2023-03-03T02:02:43.052Z,1.50
2023-03-03T02:05:07.220Z,1.50
2023-03-03T02:07:33.168Z,1.50
2023-03-03T02:10:00.682Z,1.40
2023-03-03T02:12:31.158Z,1.40
2023-03-03T02:14:54.644Z,1.30
2023-03-03T02:17:18.371Z,1.50
2023-03-03T02:19:53.310Z,1.50
2023-03-03T02:22:23.337Z,1.50
2023-03-03T02:24:53.008Z,1.50
2023-03-03T02:27:18.526Z,1.50
2023-03-03T02:29:42.354Z,1.40
2023-03-03T02:32:06.376Z,1.50
2023-03-03T02:34:29.698Z,1.50
2023-03-03T02:36:53.379Z,1.40
2023-03-03T02:39:22.299Z,1.40
2023-03-03T02:41:53.275Z,1.40
2023-03-03T02:44:20.547Z,1.40
2023-03-03T02:46:45.820Z,1.40
2023-03-03T02:49:12.285Z,1.50
2023-03-03T02:51:36.579Z,1.50
2023-03-03T02:54:00.650Z,1.50
2023-03-03T02:56:25.926Z,1.50
2023-03-03T02:58:49.221Z,1.50
2023-03-03T03:01:13.963Z,1.40
2023-03-03T03:03:38.790Z,1.40
2023-03-03T03:06:03.431Z,1.40
2023-03-03T03:08:27.775Z,1.30
2023-03-03T03:10:52.514Z,1.40
2023-03-03T03:13:15.924Z,1.30
2023-03-03T03:15:40.901Z,1.40
2023-03-03T03:18:06.453Z,1.40
2023-03-03T03:20:30.011Z,1.40
2023-03-03T03:22:53.399Z,1.50
2023-03-03T03:25:16.851Z,1.50
2023-03-03T03:27:40.767Z,1.50
2023-03-03T03:30:04.680Z,1.50
2023-03-03T03:32:29.261Z,1.50
2023-03-03T03:34:54.815Z,1.50
2023-03-03T03:37:18.490Z,1.50
2023-03-03T03:39:43.018Z,1.40
2023-03-03T03:42:06.427Z,1.50
2023-03-03T03:44:31.095Z,1.40
2023-03-03T03:46:54.480Z,1.40
2023-03-03T03:49:19.827Z,1.30
2023-03-03T03:51:45.542Z,1.30
2023-03-03T03:54:12.024Z,1.50
2023-03-03T03:56:36.207Z,1.40
2023-03-03T03:59:00.893Z,1.20
2023-03-03T04:01:25.343Z,1.40
2023-03-03T04:03:50.064Z,1.40
2023-03-03T04:06:16.438Z,1.20
2023-03-03T04:08:41.203Z,1.30
2023-03-03T04:11:06.204Z,1.30
2023-03-03T04:13:32.018Z,1.30
2023-03-03T04:15:56.717Z,1.20
2023-03-03T04:18:19.967Z,1.20
2023-03-03T04:20:43.550Z,1.40
2023-03-03T04:23:07.410Z,1.40
2023-03-03T04:25:32.597Z,1.30
2023-03-03T04:27:56.170Z,1.40
2023-03-03T04:30:20.441Z,1.50
2023-03-03T04:32:46.411Z,1.20
2023-03-03T04:35:11.244Z,1.20
2023-03-03T04:37:38.842Z,1.20
2023-03-03T04:40:02.298Z,1.20
2023-03-03T04:42:28.049Z,1.20
2023-03-03T04:44:52.128Z,1.20
2023-03-03T04:47:15.531Z,1.30
2023-03-03T04:49:39.447Z,1.20
2023-03-03T04:52:03.251Z,1.20
2023-03-03T04:54:27.244Z,1.20
2023-03-03T04:56:51.550Z,1.30
2023-03-03T04:59:16.603Z,1.20
2023-03-03T05:01:40.063Z,1.00
2023-03-03T05:04:03.542Z,1.10
2023-03-03T05:06:26.970Z,1.10
2023-03-03T05:08:50.668Z,1.10
2023-03-03T05:11:14.066Z,1.20
2023-03-03T05:13:37.441Z,1.30
2023-03-03T05:16:02.152Z,1.30
2023-03-03T05:18:27.550Z,1.10
2023-03-03T05:20:52.115Z,1.20
2023-03-03T05:23:15.504Z,1.20
2023-03-03T05:25:39.127Z,1.30
2023-03-03T05:28:02.375Z,1.20
2023-03-03T05:30:25.905Z,1.10
2023-03-03T05:32:50.618Z,1.10
2023-03-03T05:35:13.875Z,1.10
2023-03-03T05:37:37.237Z,1.20
2023-03-03T05:40:00.483Z,1.20
2023-03-03T05:42:23.936Z,1.10
2023-03-03T05:44:47.288Z,1.10
2023-03-03T05:47:10.913Z,1.10
2023-03-03T05:49:35.563Z,1.20
2023-03-03T05:51:59.228Z,1.10
2023-03-03T05:54:22.543Z,1.10
2023-03-03T05:56:46.241Z,1.00
2023-03-03T05:59:09.542Z,1.00
2023-03-03T06:01:33.287Z,1.20
2023-03-03T06:03:56.611Z,1.20
2023-03-03T06:06:21.335Z,1.20
2023-03-03T06:08:44.576Z,1.20
2023-03-03T06:11:08.034Z,1.10
2023-03-03T06:13:32.058Z,1.10
2023-03-03T06:15:55.581Z,1.10
2023-03-03T06:18:19.016Z,1.10
2023-03-03T06:20:42.438Z,1.20
2023-03-03T06:23:07.960Z,1.30
2023-03-03T06:25:31.467Z,1.30
2023-03-03T06:27:55.187Z,1.10
2023-03-03T06:30:19.031Z,1.10
2023-03-03T06:32:42.409Z,1.20
2023-03-03T06:35:06.706Z,1.20
2023-03-03T06:37:30.042Z,1.00
2023-03-03T06:39:54.660Z,1.10
2023-03-03T06:42:18.940Z,1.10
2023-03-03T06:44:42.278Z,1.10
2023-03-03T06:47:05.963Z,1.20
2023-03-03T06:49:29.702Z,1.10
2023-03-03T06:51:53.060Z,1.10
2023-03-03T06:54:19.147Z,1.30
2023-03-03T06:56:48.214Z,1.30
2023-03-03T06:59:15.826Z,1.40
2023-03-03T07:01:39.998Z,1.40
2023-03-03T07:04:09.160Z,1.30
2023-03-03T07:06:33.965Z,1.40
2023-03-03T07:08:57.998Z,1.30
2023-03-03T07:11:23.986Z,1.30
2023-03-03T07:13:51.501Z,1.40
2023-03-03T07:16:16.823Z,1.50
2023-03-03T07:18:46.418Z,1.40
2023-03-03T07:21:21.824Z,1.50
2023-03-03T07:23:47.634Z,1.50
2023-03-03T07:26:14.789Z,1.50
2023-03-03T07:28:42.698Z,1.50
2023-03-03T07:31:27.650Z,1.60
2023-03-03T07:33:51.124Z,1.60
2023-03-03T07:36:29.221Z,1.50
2023-03-03T07:38:55.829Z,1.50
2023-03-03T07:41:20.795Z,1.50
2023-03-03T07:43:50.664Z,1.50
2023-03-03T07:46:30.964Z,1.50
2023-03-03T07:48:54.650Z,1.50
2023-03-03T07:51:25.300Z,1.50
2023-03-03T07:53:49.453Z,1.50
2023-03-03T07:56:30.397Z,1.60
2023-03-03T07:58:53.659Z,1.60
2023-03-03T08:01:40.355Z,1.60
2023-03-03T08:04:08.245Z,1.70
2023-03-03T08:06:45.981Z,1.70
2023-03-03T08:09:51.094Z,1.70
2023-03-03T08:12:40.050Z,1.70
2023-03-03T08:15:20.955Z,1.70
2023-03-03T08:17:46.518Z,1.70
2023-03-03T08:20:52.625Z,1.60
2023-03-03T08:23:18.078Z,1.70
2023-03-03T08:25:42.429Z,1.80
2023-03-03T08:28:06.481Z,1.60
2023-03-03T08:30:30.917Z,1.70
2023-03-03T08:32:55.618Z,1.80
2023-03-03T08:35:19.085Z,1.80
2023-03-03T08:37:42.403Z,1.90
2023-03-03T08:40:07.027Z,1.90
2023-03-03T08:42:30.555Z,1.90
2023-03-03T08:44:53.878Z,2.00
2023-03-03T08:47:17.272Z,2.00
2023-03-03T08:49:41.895Z,2.00
2023-03-03T08:52:05.304Z,1.90
2023-03-03T08:54:28.680Z,1.90
2023-03-03T08:56:51.970Z,2.00
2023-03-03T08:59:15.303Z,1.90
2023-03-03T09:01:38.720Z,1.90
2023-03-03T09:04:02.772Z,1.90
2023-03-03T09:06:27.924Z,2.00
2023-03-03T09:08:51.361Z,2.00
2023-03-03T09:11:15.897Z,2.00
2023-03-03T09:13:39.712Z,2.00
2023-03-03T09:16:03.267Z,2.00
2023-03-03T09:18:33.271Z,2.00
2023-03-03T09:20:57.472Z,2.00
2023-03-03T09:23:35.702Z,2.00
2023-03-03T09:26:01.109Z,2.20
2023-03-03T09:28:28.031Z,2.20
2023-03-03T09:30:53.537Z,2.20
2023-03-03T09:33:36.685Z,2.20
2023-03-03T09:36:12.148Z,2.30
2023-03-03T09:38:43.346Z,2.30
2023-03-03T09:41:44.811Z,2.30
2023-03-03T09:44:49.654Z,2.30
2023-03-03T09:47:31.218Z,2.20
2023-03-03T09:50:04.667Z,2.20
2023-03-03T09:52:39.877Z,2.30
2023-03-03T09:55:26.697Z,2.30
2023-03-03T09:58:11.233Z,2.30
2023-03-03T10:00:48.921Z,2.30
2023-03-03T10:03:47.996Z,2.40
2023-03-03T10:06:20.981Z,2.40
2023-03-03T10:09:02.607Z,2.50
2023-03-03T10:11:37.103Z,2.50
2023-03-03T10:14:16.524Z,2.50
2023-03-03T10:17:07.350Z,2.40
2023-03-03T10:19:40.389Z,2.50
2023-03-03T10:22:20.535Z,2.50
2023-03-03T10:24:56.296Z,2.50
2023-03-03T10:27:41.100Z,2.60
2023-03-03T10:30:33.207Z,2.60
2023-03-03T10:33:09.881Z,2.60
2023-03-03T10:36:06.312Z,2.70
2023-03-03T10:38:57.300Z,2.80
2023-03-03T10:42:00.473Z,2.90
2023-03-03T10:44:42.658Z,2.70
2023-03-03T10:47:36.863Z,2.90
2023-03-03T10:50:13.494Z,2.90
2023-03-03T10:52:45.862Z,2.90
2023-03-03T10:55:39.678Z,2.90
2023-03-03T10:58:48.137Z,2.80
2023-03-03T11:01:27.473Z,2.90
2023-03-03T11:04:39.570Z,2.90
2023-03-03T11:07:10.865Z,2.90
2023-03-03T11:09:47.592Z,3.00
2023-03-03T11:12:26.519Z,2.90
2023-03-03T11:15:12.949Z,3.00
2023-03-03T11:17:58.979Z,3.00
2023-03-03T11:20:36.759Z,3.20
2023-03-03T11:23:18.592Z,3.20
2023-03-03T11:25:53.144Z,3.10
2023-03-03T11:28:32.944Z,3.40
2023-03-03T11:31:27.355Z,3.40
2023-03-03T11:34:02.007Z,3.40
2023-03-03T11:36:34.852Z,3.40
2023-03-03T11:39:01.712Z,3.40
2023-03-03T11:41:39.377Z,3.20
2023-03-03T11:44:15.149Z,3.40
2023-03-03T11:46:46.175Z,3.50
2023-03-03T11:49:18.626Z,3.50
2023-03-03T11:51:56.213Z,3.50
2023-03-03T11:54:25.329Z,3.50
2023-03-03T11:56:49.722Z,3.40
2023-03-03T11:59:45.624Z,3.50
2023-03-03T12:02:44.244Z,3.50
2023-03-03T12:05:16.556Z,3.30
2023-03-03T12:07:49.942Z,3.40
2023-03-03T12:10:26.129Z,3.50
2023-03-03T12:13:02.070Z,3.60
2023-03-03T12:15:35.278Z,3.60
2023-03-03T12:18:31.757Z,3.60
2023-03-03T12:21:13.236Z,3.80
2023-03-03T12:24:03.088Z,3.90
2023-03-03T12:26:34.245Z,3.70
2023-03-03T12:29:06.599Z,4.00
2023-03-03T12:31:43.297Z,4.00
2023-03-03T12:34:15.904Z,4.00
2023-03-03T12:37:00.976Z,3.80
2023-03-03T12:39:44.165Z,3.80
2023-03-03T12:42:19.037Z,3.80
2023-03-03T12:44:48.816Z,3.80
2023-03-03T12:47:22.891Z,3.70
2023-03-03T12:50:07.621Z,3.80
2023-03-03T12:52:42.768Z,3.80
2023-03-03T12:55:19.116Z,3.60
2023-03-03T12:57:49.049Z,3.90
2023-03-03T13:00:32.339Z,4.10
2023-03-03T13:03:09.341Z,4.00
2023-03-03T13:05:45.963Z,4.00
2023-03-03T13:08:34.394Z,4.10
2023-03-03T13:11:09.010Z,4.00
2023-03-03T13:13:42.070Z,4.20
2023-03-03T13:16:16.878Z,4.30
2023-03-03T13:18:52.782Z,4.50
2023-03-03T13:21:22.534Z,4.40
2023-03-03T13:23:56.167Z,4.40
2023-03-03T13:26:26.814Z,4.40
2023-03-03T13:29:04.351Z,4.50
2023-03-03T13:31:35.109Z,4.50
2023-03-03T13:34:01.905Z,4.70
2023-03-03T13:36:31.511Z,4.60
2023-03-03T13:39:02.514Z,4.90
2023-03-03T13:41:32.316Z,5.10
2023-03-03T13:44:02.136Z,5.10
2023-03-03T13:46:38.918Z,5.00
2023-03-03T13:49:19.139Z,5.00
2023-03-03T13:51:49.364Z,5.20
2023-03-03T13:54:41.021Z,5.30
2023-03-03T13:57:22.122Z,5.30
2023-03-03T13:59:59.930Z,5.40
2023-03-03T14:02:55.482Z,5.30
2023-03-03T14:05:27.442Z,5.40
2023-03-03T14:07:58.967Z,5.50
2023-03-03T14:10:31.384Z,5.40
2023-03-03T14:13:04.922Z,5.40
2023-03-03T14:15:32.686Z,5.40
2023-03-03T14:18:09.254Z,5.60
2023-03-03T14:20:36.137Z,5.90
2023-03-03T14:23:03.571Z,5.90
2023-03-03T14:25:29.224Z,5.70
2023-03-03T14:28:10.989Z,5.80
2023-03-03T14:30:39.200Z,5.80
2023-03-03T14:33:16.188Z,5.50
2023-03-03T14:35:42.723Z,5.60
2023-03-03T14:38:13.790Z,6.30
2023-03-03T14:40:42.922Z,6.50
2023-03-03T14:43:24.469Z,6.00
2023-03-03T14:45:47.863Z,6.40
2023-03-03T14:48:19.552Z,6.50
2023-03-03T14:50:45.234Z,6.50
2023-03-03T14:53:23.002Z,6.20
2023-03-03T14:55:50.244Z,6.10
2023-03-03T14:58:33.422Z,6.00
2023-03-03T15:01:23.671Z,5.90
2023-03-03T15:03:52.452Z,6.50
2023-03-03T15:06:41.868Z,6.40
2023-03-03T15:09:36.620Z,7.00
2023-03-03T15:12:03.009Z,6.80
2023-03-03T15:14:33.635Z,6.60
2023-03-03T15:16:59.925Z,6.50
2023-03-03T15:19:49.744Z,6.90
2023-03-03T15:22:26.374Z,6.90
2023-03-03T15:24:58.538Z,6.90
2023-03-03T15:27:30.153Z,7.00
2023-03-03T15:30:08.925Z,7.00
2023-03-03T15:32:42.357Z,7.10
2023-03-03T15:35:25.078Z,7.00
2023-03-03T15:37:58.065Z,6.90
2023-03-03T15:40:28.839Z,6.50
2023-03-03T15:43:03.518Z,6.60
2023-03-03T15:45:33.833Z,6.80
2023-03-03T15:48:26.090Z,6.50
2023-03-03T15:50:57.903Z,6.50
2023-03-03T15:53:57.475Z,6.50
2023-03-03T15:56:35.734Z,6.40
2023-03-03T15:59:42.318Z,7.20
2023-03-03T16:02:17.365Z,7.00
2023-03-03T16:04:49.485Z,7.00
2023-03-03T16:07:29.080Z,7.30
2023-03-03T16:10:05.649Z,7.10
2023-03-03T16:12:37.617Z,7.00
2023-03-03T16:15:31.165Z,6.60
2023-03-03T16:18:03.794Z,6.80
2023-03-03T16:20:35.149Z,6.90
2023-03-03T16:23:18.768Z,6.90
2023-03-03T16:26:06.171Z,6.60
2023-03-03T16:28:42.985Z,6.70
2023-03-03T16:31:12.904Z,6.60
2023-03-03T16:33:43.849Z,6.50
2023-03-03T16:36:15.971Z,6.50
2023-03-03T16:38:43.156Z,6.50
2023-03-03T16:41:08.534Z,6.40
2023-03-03T16:43:43.978Z,6.40
2023-03-03T16:46:23.491Z,6.30
2023-03-03T16:48:54.790Z,6.20
2023-03-03T16:51:33.438Z,6.20
2023-03-03T16:54:07.011Z,6.00
2023-03-03T16:56:38.277Z,6.00
2023-03-03T16:59:35.009Z,6.00
2023-03-03T17:02:16.278Z,5.90
2023-03-03T17:04:45.425Z,5.80
2023-03-03T17:07:25.178Z,5.80
2023-03-03T17:10:10.393Z,5.80
2023-03-03T17:12:51.884Z,5.70
2023-03-03T17:15:39.996Z,5.70
2023-03-03T17:18:14.063Z,5.50
2023-03-03T17:20:48.345Z,5.40
2023-03-03T17:23:33.104Z,5.30
2023-03-03T17:26:10.177Z,5.30
2023-03-03T17:28:47.649Z,5.20
2023-03-03T17:31:20.636Z,5.10
2023-03-03T17:34:17.124Z,5.00
2023-03-03T17:36:56.532Z,5.00
2023-03-03T17:40:19.276Z,5.00
2023-03-03T17:42:49.121Z,4.80
2023-03-03T17:45:15.130Z,4.70
2023-03-03T17:47:59.301Z,4.60
2023-03-03T17:50:40.313Z,4.50
2023-03-03T17:53:27.819Z,4.40
2023-03-03T17:56:11.659Z,4.30
2023-03-03T17:59:12.974Z,4.20
2023-03-03T18:02:02.381Z,4.20
2023-03-03T18:04:53.363Z,4.10
2023-03-03T18:07:55.071Z,4.00
2023-03-03T18:11:15.855Z,3.80
2023-03-03T18:14:23.013Z,3.70
2023-03-03T18:17:16.023Z,3.50
2023-03-03T18:20:03.580Z,3.30
2023-03-03T18:22:33.745Z,3.30
2023-03-03T18:25:05.396Z,3.20
2023-03-03T18:27:36.466Z,3.40
2023-03-03T18:30:26.790Z,3.30
2023-03-03T18:33:11.597Z,3.40
2023-03-03T18:35:39.414Z,3.30
2023-03-03T18:38:37.739Z,3.20
2023-03-03T18:41:04.605Z,3.40
2023-03-03T18:43:55.647Z,3.30
2023-03-03T18:46:54.374Z,3.40
2023-03-03T18:49:18.642Z,3.50
2023-03-03T18:51:51.765Z,3.60
2023-03-03T18:54:31.023Z,3.70
2023-03-03T18:57:19.303Z,3.60
2023-03-03T18:59:55.148Z,3.70
2023-03-03T19:02:30.741Z,3.80
2023-03-03T19:04:57.170Z,3.90
2023-03-03T19:07:27.621Z,3.80
2023-03-03T19:09:58.044Z,3.80
2023-03-03T19:12:45.627Z,3.80
2023-03-03T19:15:55.587Z,3.80
2023-03-03T19:18:22.770Z,3.90
2023-03-03T19:20:51.378Z,3.90
2023-03-03T19:23:18.732Z,3.90
2023-03-03T19:25:42.356Z,4.00
2023-03-03T19:28:30.542Z,4.00
2023-03-03T19:30:58.884Z,4.20
2023-03-03T19:33:44.055Z,4.20
2023-03-03T19:36:41.959Z,4.30
2023-03-03T19:39:30.128Z,4.30
2023-03-03T19:42:07.114Z,4.50
2023-03-03T19:44:57.968Z,4.40
2023-03-03T19:47:35.583Z,4.50
2023-03-03T19:50:16.762Z,4.40
2023-03-03T19:52:45.064Z,4.50
2023-03-03T19:55:25.379Z,4.40
2023-03-03T19:58:00.646Z,4.40
2023-03-03T20:00:35.551Z,4.40
2023-03-03T20:04:09.054Z,4.50
2023-03-03T20:06:45.199Z,4.50
2023-03-03T20:09:21.825Z,4.60
2023-03-03T20:12:00.213Z,4.60
2023-03-03T20:14:38.836Z,4.50
2023-03-03T20:17:35.342Z,4.50
2023-03-03T20:20:14.741Z,4.50
2023-03-03T20:22:50.361Z,4.60
2023-03-03T20:25:26.779Z,4.60
2023-03-03T20:28:02.966Z,4.60
2023-03-03T20:30:46.578Z,4.60
2023-03-03T20:33:29.540Z,4.60
2023-03-03T20:36:06.094Z,4.60
2023-03-03T20:38:39.445Z,4.50
2023-03-03T20:41:14.381Z,4.60
2023-03-03T20:43:54.483Z,4.60
2023-03-03T20:46:25.335Z,4.60
2023-03-03T20:49:19.882Z,4.60
2023-03-03T20:51:53.956Z,4.70
2023-03-03T20:54:29.874Z,4.90
2023-03-03T20:57:03.783Z,4.90
2023-03-03T20:59:34.017Z,4.80
2023-03-03T21:02:08.575Z,4.80
2023-03-03T21:04:36.185Z,4.90
2023-03-03T21:07:02.100Z,4.80
2023-03-03T21:09:30.065Z,4.80
2023-03-03T21:11:53.675Z,4.90
2023-03-03T21:14:22.355Z,4.90
2023-03-03T21:16:45.742Z,5.00
2023-03-03T21:19:12.749Z,5.00
2023-03-03T21:21:39.551Z,5.00
2023-03-03T21:24:03.161Z,5.00
2023-03-03T21:26:49.742Z,5.00
2023-03-03T21:29:22.629Z,5.00
2023-03-03T21:31:47.094Z,5.00
2023-03-03T21:34:25.824Z,4.90
2023-03-03T21:36:51.467Z,5.00
2023-03-03T21:39:23.812Z,4.90
2023-03-03T21:41:56.590Z,4.90
2023-03-03T21:44:37.077Z,4.90
2023-03-03T21:47:00.543Z,5.00
2023-03-03T21:49:24.294Z,5.00
2023-03-03T21:51:47.561Z,4.90
2023-03-03T21:54:12.376Z,5.00
2023-03-03T21:56:37.922Z,4.90
2023-03-03T21:59:01.150Z,4.90
2023-03-03T22:01:24.427Z,4.90
2023-03-03T22:03:48.120Z,4.90
2023-03-03T22:06:11.450Z,4.90
2023-03-03T22:08:34.808Z,4.90
2023-03-03T22:10:59.481Z,4.90
2023-03-03T22:13:24.675Z,4.90
2023-03-03T22:15:48.758Z,5.00
2023-03-03T22:18:12.237Z,4.90
2023-03-03T22:20:35.933Z,4.90
2023-03-03T22:22:59.242Z,4.90
2023-03-03T22:25:22.555Z,4.90
2023-03-03T22:27:47.265Z,4.80
2023-03-03T22:30:14.205Z,4.80
2023-03-03T22:32:37.541Z,4.80
2023-03-03T22:35:00.853Z,4.80
2023-03-03T22:37:24.324Z,4.90
2023-03-03T22:39:47.559Z,5.00
2023-03-03T22:42:11.143Z,4.90
2023-03-03T22:44:35.745Z,4.90
2023-03-03T22:46:59.077Z,4.90
2023-03-03T22:49:22.334Z,5.00
2023-03-03T22:51:45.718Z,5.00
2023-03-03T22:54:09.028Z,4.90
2023-03-03T22:56:32.412Z,4.90
2023-03-03T22:58:55.633Z,4.90
2023-03-03T23:01:20.323Z,4.90
2023-03-03T23:03:43.625Z,5.00
2023-03-03T23:06:07.775Z,4.90
2023-03-03T23:08:31.172Z,4.90
2023-03-03T23:10:54.500Z,4.90
2023-03-03T23:13:18.414Z,4.90
2023-03-03T23:15:41.911Z,4.80
2023-03-03T23:18:07.169Z,4.80
2023-03-03T23:20:32.650Z,4.80
2023-03-03T23:22:56.223Z,4.80
2023-03-03T23:25:20.681Z,4.80
2023-03-03T23:27:45.084Z,4.80
2023-03-03T23:30:10.776Z,4.80
2023-03-03T23:32:34.213Z,4.80
2023-03-03T23:34:58.841Z,4.80
2023-03-03T23:37:22.461Z,4.80
2023-03-03T23:39:45.729Z,4.70
2023-03-03T23:42:08.990Z,4.70
2023-03-03T23:44:32.320Z,4.80
2023-03-03T23:46:55.741Z,4.80
2023-03-03T23:49:19.091Z,4.80
2023-03-03T23:51:43.839Z,4.70
2023-03-03T23:54:07.164Z,4.80
2023-03-03T23:56:30.507Z,4.80
2023-03-03T23:58:53.729Z,4.80
